Time;durP1;ratioP1;P1;durP2;ratioP2;P2;SDS_P1;SDS_P2;PMS_P1;PMS_P2;Temp;Humidity;BMP_temperature;BMP_pressure;BME280_temperature;BME280_humidity;BME280_pressure;Samples;Min_cycle;Max_cycle;Signal;HPM_P1;HPM_P2
2023/12/17 00:05:09;;;;;;;40.05;37.45;;;4.70;85.30;;;;;;12512972;28;20034;-73
2023/12/17 00:11:11;;;;;;;36.22;32.95;;;4.60;85.50;;;;;;12513744;28;20040;-73
2023/12/17 00:17:12;;;;;;;32.53;29.15;;;4.70;85.50;;;;;;12513626;28;20033;-73
2023/12/17 00:23:14;;;;;;;45.00;42.00;;;4.80;85.50;;;;;;12513241;28;20033;-73
2023/12/17 00:29:16;;;;;;;32.47;30.10;;;4.80;85.30;;;;;;12512875;28;20044;-73
2023/12/17 00:35:21;;;;;;;26.92;24.63;;;4.70;85.30;;;;;;12512702;28;20022;-73
2023/12/17 00:41:24;;;;;;;50.30;47.42;;;4.80;85.20;;;;;;12512397;28;20351;-73
2023/12/17 00:47:25;;;;;;;63.47;59.58;;;4.80;85.20;;;;;;12511129;28;20528;-73
2023/12/17 00:53:27;;;;;;;28.25;25.98;;;4.70;85.00;;;;;;12510736;28;20037;-73
2023/12/17 00:59:29;;;;;;;24.05;21.75;;;4.60;85.00;;;;;;12511543;28;20033;-73
2023/12/17 01:05:33;;;;;;;35.38;32.85;;;4.60;85.20;;;;;;12510181;28;20041;-73
2023/12/17 01:11:34;;;;;;;33.85;31.33;;;4.60;85.30;;;;;;12509494;28;20056;-73
2023/12/17 01:17:36;;;;;;;24.00;22.00;;;4.50;85.30;;;;;;12510739;28;20435;-73
2023/12/17 01:23:38;;;;;;;32.53;29.98;;;4.50;85.40;;;;;;12510454;28;20041;-73
2023/12/17 01:29:39;;;;;;;22.58;20.95;;;4.30;85.30;;;;;;12510125;28;20030;-73
2023/12/17 01:35:41;;;;;;;28.77;26.02;;;4.30;85.40;;;;;;12509953;28;20032;-73
2023/12/17 01:41:44;;;;;;;33.60;31.00;;;4.30;85.40;;;;;;12491764;28;20048;-73
2023/12/17 01:47:46;;;;;;;23.10;21.02;;;4.30;85.50;;;;;;12508132;28;20430;-73
2023/12/17 01:53:48;;;;;;;30.25;28.05;;;4.30;85.50;;;;;;12507913;28;20052;-73
2023/12/17 01:59:50;;;;;;;36.00;33.50;;;4.20;85.50;;;;;;12507608;28;20450;-73
2023/12/17 02:05:52;;;;;;;23.58;21.17;;;4.00;85.50;;;;;;12508451;28;20434;-73
2023/12/17 02:11:53;;;;;;;23.25;21.13;;;4.10;85.60;;;;;;12506928;28;20041;-73
2023/12/17 02:17:55;;;;;;;24.25;22.00;;;4.20;85.40;;;;;;12507307;28;20041;-73
2023/12/17 02:23:56;;;;;;;21.42;19.35;;;4.20;85.30;;;;;;12508268;28;20026;-73
2023/12/17 02:29:58;;;;;;;26.65;24.58;;;4.00;85.60;;;;;;12506121;28;20358;-73
2023/12/17 02:35:59;;;;;;;23.75;19.70;;;3.90;85.90;;;;;;12507081;28;20025;-73
2023/12/17 02:42:01;;;;;;;17.45;13.93;;;3.90;86.00;;;;;;12506747;28;20044;-73
2023/12/17 02:48:02;;;;;;;20.95;18.88;;;3.90;86.20;;;;;;12506430;28;20029;-73
2023/12/17 02:54:05;;;;;;;32.55;30.38;;;4.10;86.10;;;;;;12506244;28;20030;-74
2023/12/17 03:00:40;;;;;;;16.52;14.55;;;4.10;86.10;;;;;;12506043;28;20457;-73
2023/12/17 03:06:45;;;;;;;15.15;13.52;;;3.90;86.00;;;;;;12505587;28;20052;-73
2023/12/17 03:12:46;;;;;;;23.70;21.80;;;3.90;86.00;;;;;;12505452;28;20029;-73
2023/12/17 03:18:48;;;;;;;17.35;15.75;;;4.00;86.00;;;;;;12505303;28;20346;-73
2023/12/17 03:24:50;;;;;;;15.65;14.15;;;4.10;85.70;;;;;;12505110;28;20040;-73
2023/12/17 03:30:51;;;;;;;19.17;15.38;;;4.00;85.70;;;;;;12503936;28;20351;-73
2023/12/17 03:36:53;;;;;;;20.73;18.60;;;3.90;85.70;;;;;;12504748;28;20033;-73
2023/12/17 03:42:54;;;;;;;23.65;21.55;;;3.90;85.70;;;;;;12504596;28;20573;-73
2023/12/17 03:48:56;;;;;;;19.35;17.33;;;3.70;85.50;;;;;;12504412;28;20034;-73
2023/12/17 03:54:58;;;;;;;18.65;15.35;;;3.70;85.80;;;;;;12504238;28;20034;-73
2023/12/17 04:01:00;;;;;;;15.20;13.70;;;3.70;86.00;;;;;;12504239;28;20040;-73
2023/12/17 04:07:01;;;;;;;11.55;10.40;;;3.70;86.00;;;;;;12503991;28;20030;-73
2023/12/17 04:13:03;;;;;;;15.15;10.98;;;3.60;85.80;;;;;;12503895;28;20048;-73
2023/12/17 04:19:04;;;;;;;13.75;11.68;;;3.40;85.80;;;;;;12503785;28;20037;-73
2023/12/17 04:25:08;;;;;;;16.83;14.43;;;3.50;86.00;;;;;;12502522;28;20033;-74
2023/12/17 04:31:10;;;;;;;14.95;12.95;;;3.60;86.00;;;;;;12503457;28;20037;-73
2023/12/17 04:37:12;;;;;;;13.70;10.27;;;3.60;86.10;;;;;;12503362;28;20034;-73
2023/12/17 04:43:13;;;;;;;14.10;12.35;;;3.50;85.90;;;;;;12508027;28;20044;-74
2023/12/17 04:49:15;;;;;;;13.35;11.55;;;3.30;85.80;;;;;;12512060;28;20037;-74
2023/12/17 04:55:16;;;;;;;17.58;12.95;;;3.40;86.10;;;;;;12512388;28;20032;-74
2023/12/17 05:01:18;;;;;;;14.35;11.05;;;3.50;86.40;;;;;;12512213;28;20029;-74
2023/12/17 05:07:19;;;;;;;12.20;10.95;;;3.70;86.20;;;;;;12511254;28;20036;-74
2023/12/17 05:13:21;;;;;;;17.05;12.82;;;3.70;86.00;;;;;;12509802;28;20045;-74
2023/12/17 05:19:22;;;;;;;20.83;19.02;;;3.70;86.10;;;;;;12510694;28;20056;-74
2023/12/17 05:25:24;;;;;;;20.02;18.23;;;3.70;86.30;;;;;;12492786;28;20045;-74
2023/12/17 05:31:26;;;;;;;15.32;13.98;;;3.60;86.20;;;;;;12510187;28;20442;-74
2023/12/17 05:37:27;;;;;;;11.65;10.00;;;3.60;86.60;;;;;;12509007;28;20049;-74
2023/12/17 05:43:29;;;;;;;14.55;13.27;;;3.60;86.50;;;;;;12509665;28;20442;-74
2023/12/17 05:49:31;;;;;;;13.10;10.98;;;3.60;86.30;;;;;;12509373;28;20037;-74
2023/12/17 05:55:32;;;;;;;20.67;19.00;;;3.50;86.20;;;;;;12507976;28;20465;-74
2023/12/17 06:01:34;;;;;;;12.52;10.73;;;3.40;86.30;;;;;;12507869;28;20112;-74
2023/12/17 06:07:36;;;;;;;10.98;9.93;;;3.50;86.50;;;;;;12507293;28;20457;-74
2023/12/17 06:13:38;;;;;;;19.10;17.55;;;3.50;86.40;;;;;;12508289;28;20032;-74
2023/12/17 06:19:40;;;;;;;14.43;10.73;;;3.40;86.20;;;;;;12507909;28;20308;-74
2023/12/17 06:25:41;;;;;;;12.00;10.80;;;3.30;86.20;;;;;;12507669;28;20033;-74
2023/12/17 06:31:43;;;;;;;12.70;11.30;;;3.20;86.20;;;;;;12506126;28;20036;-74
2023/12/17 06:37:44;;;;;;;12.68;10.63;;;3.20;86.20;;;;;;12506135;28;20048;-74
2023/12/17 06:43:46;;;;;;;15.25;11.27;;;3.20;86.30;;;;;;12506774;28;20026;-74
2023/12/17 06:49:48;;;;;;;13.48;11.90;;;3.40;86.30;;;;;;12506420;28;20025;-74
2023/12/17 06:55:50;;;;;;;17.92;16.58;;;3.20;86.10;;;;;;12535419;23;20371;-74
2023/12/17 07:01:51;;;;;;;11.88;10.50;;;3.30;86.20;;;;;;12605116;28;20342;-74
2023/12/17 07:07:53;;;;;;;27.77;26.05;;;3.40;86.20;;;;;;12604518;28;20040;-74
2023/12/17 07:13:58;;;;;;;24.95;23.15;;;3.40;86.10;;;;;;12604731;28;20028;-74
2023/12/17 07:19:59;;;;;;;15.00;13.70;;;3.30;86.00;;;;;;12604530;28;20028;-74
2023/12/17 07:26:01;;;;;;;12.05;10.45;;;3.40;86.10;;;;;;12604345;28;20028;-74
2023/12/17 07:32:03;;;;;;;19.67;17.98;;;3.40;86.00;;;;;;12604185;28;20031;-74
2023/12/17 07:38:06;;;;;;;21.80;20.30;;;3.40;86.20;;;;;;12604026;28;20330;-74
2023/12/17 07:44:08;;;;;;;14.65;12.98;;;3.40;86.00;;;;;;12603952;28;20040;-74
2023/12/17 07:50:09;;;;;;;16.77;15.30;;;3.50;86.20;;;;;;12585907;28;20029;-74
2023/12/17 07:56:11;;;;;;;16.38;14.10;;;3.50;86.20;;;;;;12603543;28;20368;-74
2023/12/17 08:02:16;;;;;;;17.20;15.60;;;3.50;86.10;;;;;;12603515;28;20031;-74
2023/12/17 08:08:18;;;;;;;28.08;25.75;;;3.70;86.20;;;;;;12585369;28;20025;-74
2023/12/17 08:14:20;;;;;;;41.05;38.60;;;3.60;85.80;;;;;;12585295;28;20036;-73
2023/12/17 08:20:22;;;;;;;37.25;35.03;;;3.70;85.80;;;;;;12593752;28;20047;-73
2023/12/17 08:26:24;;;;;;;21.13;19.38;;;3.60;85.70;;;;;;12612453;28;20029;-74
2023/12/17 08:32:31;;;;;;;26.08;23.65;;;3.70;85.40;;;;;;12612076;28;20033;-74
2023/12/17 08:38:33;;;;;;;26.95;24.65;;;3.70;85.40;;;;;;12611987;28;20040;-77
2023/12/17 08:44:35;;;;;;;38.47;35.60;;;3.80;85.30;;;;;;12593833;28;20059;-77
2023/12/17 08:51:12;;;;;;;50.10;46.67;;;3.90;85.00;;;;;;12611207;28;20333;-77
2023/12/17 08:57:14;;;;;;;49.72;45.47;;;4.00;84.80;;;;;;12593104;28;20040;-77
2023/12/17 09:03:38;;;;;;;55.88;51.75;;;4.10;84.20;;;;;;12609884;28;20043;-77
2023/12/17 09:09:48;;;;;;;55.10;51.63;;;4.20;83.40;;;;;;12610489;28;20051;-76
2023/12/17 09:15:49;;;;;;;26.00;23.70;;;4.40;83.30;;;;;;12593348;28;20041;-76
2023/12/17 09:22:11;;;;;;;56.05;52.88;;;4.50;83.00;;;;;;12606032;28;20462;-76
2023/12/17 09:28:13;;;;;;;52.58;49.42;;;4.60;82.60;;;;;;12609749;28;20036;-76
2023/12/17 09:34:15;;;;;;;67.43;63.53;;;4.80;82.70;;;;;;12575111;28;20369;-76
2023/12/17 09:40:23;;;;;;;45.33;42.42;;;4.90;82.40;;;;;;12609093;28;20033;-76
2023/12/17 09:46:24;;;;;;;60.97;57.70;;;5.00;82.50;;;;;;12553610;28;20055;-76
2023/12/17 09:52:30;;;;;;;65.28;61.90;;;5.10;82.20;;;;;;12553226;28;20044;-76
2023/12/17 09:58:32;;;;;;;103.78;98.90;;;5.20;82.40;;;;;;12546036;28;20044;-75
2023/12/17 10:04:34;;;;;;;128.65;122.43;;;5.40;82.50;;;;;;12602382;28;20040;-75
2023/12/17 10:10:36;;;;;;;131.77;125.28;;;5.50;82.50;;;;;;12568532;28;20044;-76
2023/12/17 10:16:37;;;;;;;26.33;23.88;;;5.60;82.00;;;;;;12623830;28;20035;-76
2023/12/17 10:22:39;;;;;;;95.63;91.45;;;5.80;81.60;;;;;;12657420;28;20028;-76
2023/12/17 10:28:47;;;;;;;95.43;91.10;;;5.90;80.90;;;;;;12656983;28;20341;-76
2023/12/17 10:34:50;;;;;;;106.57;101.65;;;6.00;81.00;;;;;;12638649;28;20036;-73
2023/12/17 10:40:52;;;;;;;80.72;76.82;;;6.20;80.90;;;;;;12655982;28;20028;-73
2023/12/17 10:46:57;;;;;;;100.75;96.38;;;6.20;80.50;;;;;;12656385;28;20123;-73
2023/12/17 10:53:00;;;;;;;98.75;94.55;;;6.50;80.40;;;;;;12655874;28;20020;-72
2023/12/17 10:59:10;;;;;;;101.13;96.25;;;6.60;80.10;;;;;;12624705;28;20033;-73
2023/12/17 11:05:12;;;;;;;;;;;6.80;80.00;;;;;;12587598;28;20357;-73
2023/12/17 11:11:18;;;;;;;122.35;117.00;;;7.10;79.80;;;;;;12604872;28;19912;-73
2023/12/17 11:17:20;;;;;;;120.50;115.43;;;7.30;79.50;;;;;;12586597;28;20040;-72
2023/12/17 11:23:23;;;;;;;134.48;129.02;;;7.50;79.20;;;;;;12570227;28;20360;-72
2023/12/17 11:29:40;;;;;;;113.55;108.85;;;7.70;78.80;;;;;;12586549;28;20040;-72
2023/12/17 11:35:44;;;;;;;66.50;63.35;;;7.90;78.50;;;;;;12604797;28;20020;-72
2023/12/17 11:41:46;;;;;;;87.18;83.47;;;8.00;78.10;;;;;;12586181;28;20032;-73
2023/12/17 11:47:47;;;;;;;60.58;57.70;;;8.10;77.70;;;;;;12585766;28;20041;-72
2023/12/17 11:53:49;;;;;;;58.60;56.08;;;8.10;77.40;;;;;;12592471;28;20034;-72
2023/12/17 11:59:51;;;;;;;52.85;50.30;;;8.10;77.00;;;;;;12613837;28;20032;-72
2023/12/17 12:06:14;;;;;;;47.63;45.35;;;8.10;77.00;;;;;;12595803;28;20032;-72
2023/12/17 12:12:17;;;;;;;61.75;59.08;;;8.20;76.70;;;;;;12613249;28;20040;-72
2023/12/17 12:18:21;;;;;;;57.20;54.58;;;8.20;76.60;;;;;;12613966;28;20032;-72
2023/12/17 12:24:24;;;;;;;55.65;52.97;;;8.20;76.40;;;;;;12612750;28;20373;-72
2023/12/17 12:30:32;;;;;;;60.47;57.47;;;8.20;76.40;;;;;;12594368;28;20318;-72
2023/12/17 12:36:44;;;;;;;49.70;46.40;;;8.30;76.20;;;;;;12612069;28;20323;-72
2023/12/17 12:42:46;;;;;;;54.85;51.63;;;8.20;76.00;;;;;;12611799;28;20043;-72
2023/12/17 12:48:58;;;;;;;39.78;37.55;;;8.20;75.60;;;;;;12593640;28;20039;-72
2023/12/17 12:54:59;;;;;;;36.65;34.63;;;8.30;75.50;;;;;;12611254;28;20035;-71
2023/12/17 13:01:01;;;;;;;39.65;37.25;;;8.40;75.00;;;;;;12610644;28;20025;-72
2023/12/17 13:07:04;;;;;;;42.58;40.10;;;8.40;74.60;;;;;;12610752;28;20043;-72
2023/12/17 13:13:06;;;;;;;21.63;19.35;;;8.50;74.60;;;;;;12593317;28;20040;-72
2023/12/17 13:19:08;;;;;;;30.88;29.00;;;8.60;74.30;;;;;;12610207;28;20029;-72
2023/12/17 13:25:10;;;;;;;26.27;24.15;;;8.70;74.40;;;;;;12610044;28;20349;-72
2023/12/17 13:31:11;;;;;;;19.45;17.38;;;8.80;73.80;;;;;;12609633;28;20033;-72
2023/12/17 13:37:13;;;;;;;19.85;17.95;;;8.90;73.70;;;;;;12575253;28;20032;-72
2023/12/17 13:43:15;;;;;;;15.15;13.35;;;8.90;73.30;;;;;;12609049;28;20028;-72
2023/12/17 13:49:25;;;;;;;14.80;12.77;;;9.00;73.10;;;;;;12574167;28;20040;-72
2023/12/17 13:55:30;;;;;;;15.00;10.60;;;9.20;73.10;;;;;;12608331;28;20032;-75
2023/12/17 14:01:31;;;;;;;13.82;10.77;;;9.20;72.70;;;;;;12608843;28;20032;-75
2023/12/17 14:07:50;;;;;;;13.68;12.10;;;9.20;72.90;;;;;;12607875;28;20039;-75
2023/12/17 14:13:51;;;;;;;12.93;11.40;;;9.20;73.00;;;;;;12607477;28;20029;-75
2023/12/17 14:19:54;;;;;;;17.40;12.73;;;9.50;72.60;;;;;;12590151;28;20032;-75
2023/12/17 14:25:57;;;;;;;13.57;10.43;;;9.80;72.20;;;;;;12572281;28;20032;-75
2023/12/17 14:32:02;;;;;;;15.82;9.98;;;10.30;71.60;;;;;;12589357;28;20029;-75
2023/12/17 14:38:04;;;;;;;16.52;12.82;;;10.60;70.80;;;;;;12589162;28;20542;-75
2023/12/17 14:44:06;;;;;;;14.48;11.93;;;10.40;71.20;;;;;;12606632;28;20429;-72
2023/12/17 14:50:08;;;;;;;13.35;9.95;;;9.80;72.00;;;;;;12606317;28;20037;-72
2023/12/17 14:56:10;;;;;;;13.48;8.93;;;9.40;72.60;;;;;;12611444;22;20049;-72
2023/12/17 15:02:13;;;;;;;15.45;12.55;;;9.10;73.00;;;;;;12588016;28;20024;-72
2023/12/17 15:08:57;;;;;;;24.80;21.88;;;8.80;73.60;;;;;;12587982;28;20337;-72
2023/12/17 15:14:59;;;;;;;75.43;70.28;;;8.60;74.10;;;;;;12604875;28;20032;-72
2023/12/17 15:21:02;;;;;;;143.52;137.30;;;8.40;74.60;;;;;;12564595;28;20068;-72
2023/12/17 15:27:05;;;;;;;271.50;258.90;;;8.20;75.10;;;;;;12598266;28;20463;-72
2023/12/17 15:33:06;;;;;;;213.75;203.35;;;8.00;75.50;;;;;;12598916;28;20075;-72
2023/12/17 15:39:11;;;;;;;99.80;94.13;;;7.70;75.90;;;;;;12597934;28;20029;-72
2023/12/17 15:45:13;;;;;;;172.45;164.48;;;7.60;76.20;;;;;;12580018;28;20044;-72
2023/12/17 15:51:18;;;;;;;124.43;118.50;;;7.50;76.40;;;;;;12597647;28;20452;-72
2023/12/17 15:57:20;;;;;;;115.15;109.55;;;7.30;76.70;;;;;;12599133;28;20032;-72
2023/12/17 16:03:22;;;;;;;116.72;111.45;;;7.20;77.00;;;;;;12585903;28;20021;-72
2023/12/17 16:09:23;;;;;;;77.45;73.22;;;7.10;77.20;;;;;;12603506;28;20029;-73
2023/12/17 16:15:27;;;;;;;44.30;40.95;;;7.10;77.30;;;;;;12603421;28;20024;-72
2023/12/17 16:21:37;;;;;;;74.95;71.32;;;6.90;77.70;;;;;;12603407;28;20036;-73
2023/12/17 16:27:39;;;;;;;30.67;28.40;;;6.80;77.90;;;;;;12602370;28;20029;-73
2023/12/17 16:34:12;;;;;;;23.80;21.90;;;6.70;78.20;;;;;;12603258;28;20044;-72
2023/12/17 16:40:14;;;;;;;17.73;15.90;;;6.70;78.40;;;;;;12591832;28;20028;-73
2023/12/17 16:46:16;;;;;;;14.80;13.05;;;6.60;78.70;;;;;;12560887;28;20037;-72
2023/12/17 16:52:18;;;;;;;70.00;66.53;;;6.50;78.80;;;;;;12555817;28;20037;-73
2023/12/17 16:58:19;;;;;;;16.10;14.13;;;6.50;79.10;;;;;;12538516;28;20029;-72
2023/12/17 17:04:21;;;;;;;25.85;23.45;;;6.50;79.20;;;;;;12555631;28;20040;-73
2023/12/17 17:10:23;;;;;;;17.20;15.40;;;6.40;79.40;;;;;;12554870;28;20039;-72
2023/12/17 17:16:25;;;;;;;24.83;22.40;;;6.40;79.50;;;;;;12570219;28;20437;-73
2023/12/17 17:22:27;;;;;;;71.00;67.03;;;6.20;79.80;;;;;;12592729;28;20051;-73
2023/12/17 17:28:29;;;;;;;20.23;18.52;;;6.20;80.00;;;;;;12610189;28;20037;-73
2023/12/17 17:34:31;;;;;;;70.10;66.15;;;6.20;80.20;;;;;;12610085;28;20031;-73
2023/12/17 17:40:33;;;;;;;18.60;16.90;;;6.20;80.20;;;;;;12591862;28;20033;-72
2023/12/17 17:46:35;;;;;;;35.90;33.15;;;6.10;80.30;;;;;;12590813;28;20032;-73
2023/12/17 17:52:38;;;;;;;22.95;21.05;;;6.10;80.40;;;;;;12607897;28;20069;-73
2023/12/17 17:58:44;;;;;;;14.98;13.38;;;6.10;80.50;;;;;;12608874;28;20330;-73
2023/12/17 18:04:45;;;;;;;68.53;64.55;;;6.00;80.50;;;;;;12590762;28;20033;-72
2023/12/17 18:10:48;;;;;;;93.30;88.30;;;6.00;80.60;;;;;;12607481;28;20150;-73
2023/12/17 18:16:52;;;;;;;27.63;25.42;;;5.90;80.80;;;;;;12607766;28;20345;-72
2023/12/17 18:22:54;;;;;;;26.05;23.83;;;5.90;81.00;;;;;;12573788;28;20036;-72
2023/12/17 18:28:56;;;;;;;43.55;40.03;;;5.80;81.20;;;;;;12607341;28;20036;-72
2023/12/17 18:35:06;;;;;;;24.98;23.02;;;5.80;81.30;;;;;;12589239;28;20033;-72
2023/12/17 18:41:08;;;;;;;28.27;26.00;;;5.80;81.50;;;;;;12607042;28;20348;-72
2023/12/17 18:47:11;;;;;;;27.50;25.20;;;5.70;81.50;;;;;;12606013;28;20033;-72
2023/12/17 18:53:13;;;;;;;18.55;16.10;;;5.70;81.60;;;;;;12605640;28;20036;-72
2023/12/17 18:59:15;;;;;;;18.17;16.42;;;5.60;81.60;;;;;;12605065;28;20048;-72
2023/12/17 19:05:16;;;;;;;30.08;27.52;;;5.60;81.60;;;;;;12570927;28;20052;-72
2023/12/17 19:11:19;;;;;;;49.78;46.60;;;5.70;81.60;;;;;;12604862;28;20028;-72
2023/12/17 19:17:21;;;;;;;36.00;32.92;;;5.60;81.60;;;;;;12586939;28;20037;-72
2023/12/17 19:23:23;;;;;;;35.75;30.33;;;5.60;81.50;;;;;;12605207;28;20337;-72
2023/12/17 19:29:25;;;;;;;49.88;46.33;;;5.60;81.50;;;;;;12604281;28;20044;-72
2023/12/17 19:35:26;;;;;;;26.17;23.50;;;5.60;81.60;;;;;;12586206;28;20464;-72
2023/12/17 19:41:28;;;;;;;34.72;31.75;;;5.60;81.60;;;;;;12604022;28;20039;-72
2023/12/17 19:47:30;;;;;;;43.63;39.92;;;5.60;81.70;;;;;;12586186;28;20468;-72
2023/12/17 19:53:32;;;;;;;25.23;20.27;;;5.50;81.60;;;;;;12603631;28;20047;-72
2023/12/17 19:59:34;;;;;;;31.58;28.80;;;5.50;81.60;;;;;;12603555;28;20044;-72
2023/12/17 20:05:38;;;;;;;27.67;24.98;;;5.50;81.70;;;;;;12585558;28;20033;-74
2023/12/17 20:11:41;;;;;;;45.78;42.60;;;5.40;81.70;;;;;;12604168;28;20429;-72
2023/12/17 20:17:42;;;;;;;23.83;21.48;;;5.40;81.80;;;;;;12613084;28;20029;-73
2023/12/17 20:23:47;;;;;;;27.25;24.77;;;5.40;81.90;;;;;;12612785;28;20033;-73
2023/12/17 20:29:48;;;;;;;35.05;31.75;;;5.40;82.00;;;;;;12612477;28;20037;-73
2023/12/17 20:35:50;;;;;;;38.72;35.28;;;5.40;82.00;;;;;;12612317;28;20036;-72
2023/12/17 20:41:52;;;;;;;30.48;26.58;;;5.30;82.00;;;;;;12611967;28;20031;-72
2023/12/17 20:47:54;;;;;;;68.28;63.97;;;5.30;82.00;;;;;;12593977;28;20033;-73
2023/12/17 20:53:56;;;;;;;37.63;34.20;;;5.20;82.00;;;;;;12593616;28;20032;-73
2023/12/17 20:59:57;;;;;;;59.55;55.67;;;5.20;82.00;;;;;;12611052;28;20457;-73
2023/12/17 21:05:59;;;;;;;80.18;75.75;;;5.10;82.00;;;;;;12610840;28;20029;-73
2023/12/17 21:12:01;;;;;;;50.20;45.95;;;5.10;82.20;;;;;;12610419;28;20433;-73
2023/12/17 21:18:04;;;;;;;54.08;50.30;;;5.10;82.20;;;;;;12610342;28;20039;-72
2023/12/17 21:24:06;;;;;;;64.55;60.40;;;5.10;82.10;;;;;;12609621;28;20029;-72
2023/12/17 21:30:08;;;;;;;34.72;32.08;;;5.00;82.20;;;;;;12609785;28;20032;-72
2023/12/17 21:36:10;;;;;;;39.17;36.00;;;5.00;82.20;;;;;;12610274;28;20016;-73
2023/12/17 21:42:12;;;;;;;69.88;65.70;;;5.00;82.30;;;;;;12609331;28;20457;-73
2023/12/17 21:48:14;;;;;;;60.05;56.17;;;5.00;82.40;;;;;;12591371;28;20043;-72
2023/12/17 21:54:15;;;;;;;29.55;26.73;;;4.90;82.40;;;;;;12591013;28;20036;-72
2023/12/17 22:00:18;;;;;;;59.13;55.58;;;4.90;82.40;;;;;;12590450;28;20040;-73
2023/12/17 22:06:20;;;;;;;73.13;68.40;;;4.90;82.50;;;;;;12608188;28;20028;-72
2023/12/17 22:12:22;;;;;;;89.22;84.22;;;4.90;82.50;;;;;;12607728;28;20036;-73
2023/12/17 22:18:24;;;;;;;66.80;62.63;;;4.90;82.50;;;;;;12608308;28;20429;-72
2023/12/17 22:24:26;;;;;;;80.30;75.40;;;4.90;82.60;;;;;;12608060;28;20336;-72
2023/12/17 22:30:28;;;;;;;43.22;40.05;;;4.80;82.60;;;;;;12606858;28;20032;-73
2023/12/17 22:36:30;;;;;;;51.60;48.60;;;4.80;82.60;;;;;;12605882;28;20036;-73
2023/12/17 22:42:32;;;;;;;41.35;38.42;;;4.80;82.70;;;;;;12588643;28;20463;-72
2023/12/17 22:48:36;;;;;;;61.55;58.20;;;4.70;82.70;;;;;;12605917;28;20029;-73
2023/12/17 22:54:38;;;;;;;32.40;29.63;;;4.60;82.80;;;;;;12611536;22;20028;-76
2023/12/17 23:01:27;;;;;;;53.38;50.05;;;4.60;82.90;;;;;;12605455;28;20047;-76
2023/12/17 23:07:29;;;;;;;54.97;50.97;;;4.60;82.90;;;;;;12605182;28;20441;-76
2023/12/17 23:13:30;;;;;;;61.95;58.17;;;4.60;82.90;;;;;;12604869;28;20051;-76
2023/12/17 23:19:32;;;;;;;47.35;44.28;;;4.70;83.00;;;;;;12570439;28;20048;-76
2023/12/17 23:25:34;;;;;;;56.35;52.70;;;4.60;82.90;;;;;;12570616;28;20365;-76
2023/12/17 23:31:35;;;;;;;37.88;34.85;;;4.50;82.90;;;;;;12604282;28;20032;-76
2023/12/17 23:37:37;;;;;;;49.45;45.90;;;4.40;82.90;;;;;;12604210;28;20028;-76
2023/12/17 23:43:38;;;;;;;38.67;35.78;;;4.40;83.00;;;;;;12604026;28;20040;-76
2023/12/17 23:49:40;;;;;;;28.10;25.67;;;4.40;83.00;;;;;;12585864;28;20029;-77
2023/12/17 23:55:42;;;;;;;60.35;56.25;;;4.40;83.10;;;;;;12569286;28;20033;-76
